createdAt,value
2018-04-13T00:01:54.524Z,6.90
2018-04-13T00:04:22.686Z,6.80
2018-04-13T00:06:51.605Z,6.60
2018-04-13T00:09:20.524Z,6.60
2018-04-13T00:11:48.605Z,6.50
2018-04-13T00:14:16.686Z,6.60
2018-04-13T00:16:44.791Z,6.50
2018-04-13T00:19:12.868Z,6.50
2018-04-13T00:21:40.963Z,6.60
2018-04-13T00:24:09.151Z,6.60
2018-04-13T00:26:37.230Z,6.60
2018-04-13T00:29:05.375Z,6.50
2018-04-13T00:31:33.480Z,6.70
2018-04-13T00:34:01.605Z,6.70
2018-04-13T00:36:29.723Z,6.60
2018-04-13T00:38:57.852Z,6.50
2018-04-13T00:41:25.963Z,6.50
2018-04-13T00:43:54.112Z,6.50
2018-04-13T00:46:22.228Z,6.70
2018-04-13T00:48:50.383Z,6.60
2018-04-13T00:51:18.501Z,6.60
2018-04-13T00:53:46.623Z,6.80
2018-04-13T00:56:15.597Z,6.70
2018-04-13T00:58:43.737Z,6.70
2018-04-13T01:01:12.625Z,6.60
2018-04-13T01:03:41.597Z,6.40
2018-04-13T01:06:10.294Z,6.40
2018-04-13T01:08:38.397Z,6.40
2018-04-13T01:11:06.535Z,6.30
2018-04-13T01:13:34.654Z,6.20
2018-04-13T01:16:02.797Z,6.20
2018-04-13T01:18:30.934Z,6.10
2018-04-13T01:20:59.034Z,6.10
2018-04-13T01:23:28.907Z,6.40
2018-04-13T01:25:56.976Z,6.40
2018-04-13T01:28:25.093Z,6.90
2018-04-13T01:30:53.212Z,7.00
2018-04-13T01:33:21.397Z,7.10
2018-04-13T01:35:49.492Z,6.90
2018-04-13T01:38:18.399Z,6.40
2018-04-13T01:40:46.493Z,6.40
2018-04-13T01:43:14.636Z,6.30
2018-04-13T01:45:42.790Z,6.30
2018-04-13T01:48:10.932Z,6.30
2018-04-13T01:50:39.775Z,6.10
2018-04-13T01:53:07.872Z,6.10
2018-04-13T01:55:35.977Z,6.20
2018-04-13T01:58:04.096Z,6.20
2018-04-13T02:00:33.052Z,6.10
2018-04-13T02:03:01.158Z,6.10
2018-04-13T02:05:29.272Z,6.00
2018-04-13T02:07:58.151Z,6.20
2018-04-13T02:10:26.244Z,6.20
2018-04-13T02:12:54.344Z,6.30
2018-04-13T02:15:23.239Z,6.20
2018-04-13T02:17:52.102Z,6.20
2018-04-13T02:20:20.231Z,6.10
2018-04-13T02:22:49.099Z,6.10
2018-04-13T02:25:17.191Z,6.10
2018-04-13T02:27:45.348Z,6.00
2018-04-13T02:30:13.495Z,5.90
2018-04-13T02:32:42.367Z,5.90
2018-04-13T02:35:10.515Z,5.90
2018-04-13T02:37:38.630Z,5.90
2018-04-13T02:40:06.753Z,5.90
2018-04-13T02:42:35.624Z,6.20
2018-04-13T02:45:03.746Z,6.20
2018-04-13T02:47:32.671Z,6.60
2018-04-13T02:50:00.748Z,6.60
2018-04-13T02:52:28.860Z,6.90
2018-04-13T02:54:56.955Z,6.90
2018-04-13T02:57:25.077Z,7.00
2018-04-13T02:59:54.052Z,6.70
2018-04-13T03:02:22.137Z,6.70
2018-04-13T03:07:20.872Z,6.40
2018-04-13T03:09:49.043Z,6.50
2018-04-13T03:12:17.149Z,6.60
2018-04-13T03:14:45.234Z,6.60
2018-04-13T03:17:13.332Z,6.60
2018-04-13T03:19:42.190Z,6.80
2018-04-13T03:22:10.289Z,6.80
2018-04-13T03:24:38.452Z,6.90
2018-04-13T03:27:06.597Z,6.80
2018-04-13T03:29:35.482Z,6.60
2018-04-13T03:32:03.583Z,6.60
2018-04-13T03:34:32.449Z,6.60
2018-04-13T03:37:00.567Z,6.60
2018-04-13T03:39:28.640Z,6.60
2018-04-13T03:41:56.775Z,6.60
2018-04-13T03:44:24.912Z,6.50
2018-04-13T03:46:53.814Z,6.60
2018-04-13T03:49:21.909Z,6.60
2018-04-13T03:51:50.977Z,6.50
2018-04-13T03:54:19.076Z,6.50
2018-04-13T03:56:47.169Z,6.50
2018-04-13T03:59:15.422Z,6.50
2018-04-13T04:01:43.540Z,6.60
2018-04-13T04:04:11.636Z,6.50
2018-04-13T04:06:40.552Z,6.60
2018-04-13T04:09:09.435Z,6.70
2018-04-13T04:11:37.698Z,6.70
2018-04-13T04:14:05.797Z,6.70
2018-04-13T04:16:33.894Z,6.80
2018-04-13T04:19:02.048Z,6.90
2018-04-13T04:21:42.128Z,6.80
2018-04-13T04:24:22.069Z,7.00
2018-04-13T04:26:50.229Z,7.30
2018-04-13T04:29:18.402Z,7.40
2018-04-13T04:31:46.519Z,7.50
2018-04-13T04:34:14.619Z,7.50
2018-04-13T04:36:42.772Z,7.50
2018-04-13T04:39:11.604Z,7.70
2018-04-13T04:41:39.763Z,7.70
2018-04-13T04:44:07.887Z,7.70
2018-04-13T04:46:35.957Z,7.70
2018-04-13T04:49:04.071Z,7.70
2018-04-13T04:51:32.163Z,7.80
2018-04-13T04:54:00.307Z,7.90
2018-04-13T04:56:28.517Z,7.90
2018-04-13T04:58:56.721Z,7.80
2018-04-13T05:01:24.846Z,7.90
2018-04-13T05:03:53.037Z,7.80
2018-04-13T05:06:21.935Z,7.90
2018-04-13T05:08:50.040Z,7.80
2018-04-13T05:11:18.126Z,7.90
2018-04-13T05:13:46.228Z,7.90
2018-04-13T05:16:14.319Z,8.00
2018-04-13T05:18:42.421Z,8.10
2018-04-13T05:21:10.596Z,8.20
2018-04-13T05:23:38.731Z,8.30
2018-04-13T05:26:07.197Z,8.30
2018-04-13T05:28:35.329Z,8.30
2018-04-13T05:31:03.434Z,8.30
2018-04-13T05:33:31.618Z,8.40
2018-04-13T05:35:59.827Z,8.40
2018-04-13T05:38:28.054Z,8.50
2018-04-13T05:40:56.916Z,8.70
2018-04-13T05:43:25.016Z,8.60
2018-04-13T05:45:53.106Z,8.70
2018-04-13T05:48:21.248Z,8.80
2018-04-13T05:50:49.337Z,8.90
2018-04-13T05:53:17.448Z,9.00
2018-04-13T05:55:45.591Z,9.10
2018-04-13T05:58:13.720Z,9.20
2018-04-13T06:00:41.833Z,9.20
2018-04-13T06:03:09.993Z,9.30
2018-04-13T06:05:38.125Z,9.40
2018-04-13T06:08:06.222Z,9.50
2018-04-13T06:10:34.288Z,9.50
2018-04-13T06:13:02.442Z,9.60
2018-04-13T06:15:30.539Z,9.60
2018-04-13T06:17:59.399Z,9.90
2018-04-13T06:20:27.528Z,9.90
2018-04-13T06:22:56.422Z,10.20
2018-04-13T06:25:24.529Z,10.20
2018-04-13T06:27:52.672Z,10.30
2018-04-13T06:30:20.730Z,10.50
2018-04-13T06:32:48.836Z,10.70
2018-04-13T06:35:16.961Z,10.90
2018-04-13T06:37:45.833Z,11.20
2018-04-13T06:40:13.969Z,11.20
2018-04-13T06:42:42.080Z,11.20
2018-04-13T06:45:10.256Z,11.40
2018-04-13T06:47:39.284Z,11.40
2018-04-13T06:50:07.452Z,11.60
2018-04-13T06:52:35.561Z,11.80
2018-04-13T06:55:03.728Z,11.90
2018-04-13T06:57:31.931Z,12.10
2018-04-13T07:00:00.035Z,12.20
2018-04-13T07:02:28.199Z,12.40
2018-04-13T07:04:56.305Z,12.50
2018-04-13T07:07:24.412Z,12.60
2018-04-13T07:09:53.343Z,12.90
2018-04-13T07:12:21.461Z,12.90
2018-04-13T07:14:49.595Z,13.10
2018-04-13T07:17:17.727Z,13.20
2018-04-13T07:19:45.875Z,13.40
2018-04-13T07:22:14.003Z,13.40
2018-04-13T07:24:42.104Z,13.50
2018-04-13T07:27:10.230Z,13.50
2018-04-13T07:29:38.357Z,13.60
2018-04-13T07:32:06.501Z,13.60
2018-04-13T07:34:34.615Z,13.70
2018-04-13T07:37:02.749Z,13.80
2018-04-13T07:39:31.629Z,13.80
2018-04-13T07:41:59.792Z,13.80
2018-04-13T07:44:27.996Z,13.90
2018-04-13T07:46:56.130Z,14.10
2018-04-13T07:49:24.260Z,14.10
2018-04-13T07:51:52.384Z,14.20
2018-04-13T07:54:21.264Z,14.20
2018-04-13T07:56:50.145Z,14.30
2018-04-13T07:59:18.280Z,14.30
2018-04-13T08:01:46.387Z,14.40
2018-04-13T08:04:14.480Z,14.30
2018-04-13T08:06:42.613Z,14.50
2018-04-13T08:09:10.710Z,14.20
2018-04-13T08:11:39.623Z,14.20
2018-04-13T08:14:08.487Z,14.30
2018-04-13T08:16:36.695Z,14.30
2018-04-13T08:19:04.779Z,14.40
2018-04-13T08:21:32.865Z,14.30
2018-04-13T08:24:01.745Z,14.20
2018-04-13T08:26:29.853Z,14.10
2018-04-13T08:28:57.951Z,14.10
2018-04-13T08:31:26.104Z,14.00
2018-04-13T08:33:54.209Z,14.00
2018-04-13T08:36:22.307Z,14.00
2018-04-13T08:38:50.407Z,14.10
2018-04-13T08:41:18.543Z,14.20
2018-04-13T08:43:46.696Z,14.10
2018-04-13T08:46:14.789Z,14.10
2018-04-13T08:48:42.982Z,14.10
2018-04-13T08:51:10.978Z,14.20
2018-04-13T08:53:39.092Z,14.20
2018-04-13T08:56:07.183Z,14.20
2018-04-13T08:58:36.108Z,14.00
2018-04-13T09:01:04.250Z,14.00
2018-04-13T09:03:32.331Z,14.00
2018-04-13T09:06:00.444Z,14.00
2018-04-13T09:08:29.325Z,13.90
2018-04-13T09:10:57.423Z,14.00
2018-04-13T09:13:27.114Z,14.00
2018-04-13T09:15:55.192Z,14.00
2018-04-13T09:18:23.283Z,14.00
2018-04-13T09:20:51.500Z,13.70
2018-04-13T09:23:19.524Z,13.70
2018-04-13T09:25:47.696Z,13.60
2018-04-13T09:28:15.819Z,13.50
2018-04-13T09:30:43.977Z,13.50
2018-04-13T09:33:12.062Z,13.40
2018-04-13T09:35:40.153Z,13.40
2018-04-13T09:38:08.321Z,13.30
2018-04-13T09:40:37.273Z,13.20
2018-04-13T09:43:05.416Z,13.10
2018-04-13T09:45:33.586Z,12.90
2018-04-13T09:48:01.668Z,12.60
2018-04-13T09:50:30.851Z,12.40
2018-04-13T09:52:59.015Z,12.40
2018-04-13T09:55:27.178Z,12.10
2018-04-13T09:57:55.349Z,11.90
2018-04-13T10:00:30.121Z,11.60
2018-04-13T10:03:03.243Z,11.60
2018-04-13T10:05:31.381Z,11.40
2018-04-13T10:07:59.506Z,11.20
2018-04-13T10:10:27.598Z,11.00
2018-04-13T10:12:55.686Z,10.40
2018-04-13T10:15:23.777Z,9.80
2018-04-13T10:17:51.864Z,9.50
2018-04-13T10:20:20.034Z,9.40
2018-04-13T10:22:48.163Z,9.30
2018-04-13T10:25:17.025Z,9.30
2018-04-13T10:27:45.114Z,9.30
2018-04-13T10:30:13.250Z,9.40
2018-04-13T10:32:41.448Z,9.30
2018-04-13T10:35:09.546Z,9.20
2018-04-13T10:37:37.623Z,9.20
2018-04-13T10:40:05.716Z,9.30
2018-04-13T10:42:33.804Z,9.30
2018-04-13T10:45:02.020Z,9.40
2018-04-13T10:47:30.146Z,9.40
2018-04-13T10:49:58.227Z,9.40
2018-04-13T10:52:27.192Z,9.40
2018-04-13T10:54:55.306Z,9.40
2018-04-13T10:57:24.162Z,9.20
2018-04-13T10:59:52.296Z,9.20
2018-04-13T11:02:21.167Z,9.20
2018-04-13T11:04:49.248Z,9.20
2018-04-13T11:07:17.362Z,9.20
2018-04-13T11:09:46.255Z,9.20
2018-04-13T11:12:14.345Z,9.20
2018-04-13T11:14:43.264Z,9.20
2018-04-13T11:17:12.172Z,9.20
2018-04-13T11:19:40.251Z,9.30
2018-04-13T11:22:08.400Z,9.20
2018-04-13T11:24:36.499Z,9.30
2018-04-13T11:27:04.678Z,9.30
2018-04-13T11:29:32.856Z,9.20
2018-04-13T11:32:01.017Z,9.10
2018-04-13T11:34:29.099Z,9.10
2018-04-13T11:36:57.287Z,9.10
2018-04-13T11:39:25.399Z,9.10
2018-04-13T11:41:53.523Z,9.20
2018-04-13T11:44:22.400Z,9.10
2018-04-13T11:46:52.097Z,9.00
2018-04-13T11:49:20.191Z,9.10
2018-04-13T11:51:48.324Z,9.00
2018-04-13T11:54:16.375Z,9.10
2018-04-13T11:56:44.515Z,9.00
2018-04-13T11:59:12.665Z,9.00
2018-04-13T12:01:41.571Z,9.10
2018-04-13T12:04:10.456Z,9.00
2018-04-13T12:06:39.305Z,9.00
2018-04-13T12:09:07.428Z,9.00
2018-04-13T12:11:35.584Z,9.00
2018-04-13T12:14:03.698Z,9.00
2018-04-13T12:16:31.829Z,9.10
2018-04-13T12:18:59.944Z,9.10
2018-04-13T12:21:28.058Z,9.20
2018-04-13T12:23:56.151Z,9.30
2018-04-13T12:26:24.407Z,9.30
2018-04-13T12:28:52.608Z,9.40
2018-04-13T12:31:20.805Z,9.50
2018-04-13T12:33:49.002Z,9.70
2018-04-13T12:36:17.109Z,9.90
2018-04-13T12:38:45.996Z,10.20
2018-04-13T12:41:14.886Z,10.30
2018-04-13T12:43:43.019Z,10.30
2018-04-13T12:46:11.141Z,10.40
2018-04-13T12:48:39.260Z,10.50
2018-04-13T12:51:08.117Z,10.30
2018-04-13T12:53:36.268Z,10.30
2018-04-13T12:56:04.406Z,10.10
2018-04-13T12:58:32.475Z,10.00
2018-04-13T13:01:00.593Z,9.80
2018-04-13T13:03:28.695Z,9.80
2018-04-13T13:05:56.829Z,9.70
2018-04-13T13:08:24.967Z,9.60
2018-04-13T13:10:53.063Z,9.60
2018-04-13T13:13:21.146Z,9.80
2018-04-13T13:15:49.256Z,10.00
2018-04-13T13:18:17.424Z,10.10
2018-04-13T13:20:45.526Z,10.10
2018-04-13T13:23:13.626Z,10.10
2018-04-13T13:25:41.751Z,10.00
2018-04-13T13:28:10.666Z,9.80
2018-04-13T13:30:39.524Z,9.70
2018-04-13T13:33:07.620Z,9.70
2018-04-13T13:35:35.728Z,9.70
2018-04-13T13:38:03.820Z,9.70
2018-04-13T13:40:32.660Z,9.60
2018-04-13T13:43:00.807Z,9.60
2018-04-13T13:45:29.700Z,9.60
2018-04-13T13:47:57.781Z,9.50
2018-04-13T13:50:25.899Z,9.50
2018-04-13T13:52:54.023Z,9.60
2018-04-13T13:55:22.161Z,9.50
2018-04-13T13:57:51.026Z,9.30
2018-04-13T14:00:19.176Z,9.30
2018-04-13T14:02:47.260Z,9.20
2018-04-13T14:05:15.392Z,9.10
2018-04-13T14:07:43.486Z,9.10
2018-04-13T14:10:11.600Z,9.20
2018-04-13T14:12:39.849Z,9.20
2018-04-13T14:15:07.930Z,9.20
2018-04-13T14:17:36.028Z,9.20
2018-04-13T14:20:04.100Z,9.20
2018-04-13T14:22:32.205Z,9.20
2018-04-13T14:25:01.080Z,9.10
2018-04-13T14:27:29.174Z,9.10
2018-04-13T14:29:57.412Z,9.20
2018-04-13T14:32:25.493Z,9.20
2018-04-13T14:34:53.684Z,9.30
2018-04-13T14:37:21.778Z,9.20
2018-04-13T14:39:49.917Z,9.30
2018-04-13T14:42:18.767Z,9.50
2018-04-13T14:44:46.988Z,9.40
2018-04-13T14:47:15.083Z,9.60
2018-04-13T14:49:43.981Z,10.10
2018-04-13T14:52:12.125Z,10.10
2018-04-13T14:54:40.392Z,10.30
2018-04-13T14:57:08.546Z,10.60
2018-04-13T14:59:36.724Z,10.80
2018-04-13T15:02:04.819Z,11.00
2018-04-13T15:04:32.928Z,11.30
2018-04-13T15:07:01.911Z,11.60
2018-04-13T15:09:30.018Z,11.50
2018-04-13T15:11:58.884Z,11.70
2018-04-13T15:14:27.016Z,11.60
2018-04-13T15:16:55.160Z,11.50
2018-04-13T15:19:23.276Z,11.60
2018-04-13T15:21:52.176Z,11.70
2018-04-13T15:24:21.030Z,11.80
2018-04-13T15:26:49.146Z,11.80
2018-04-13T15:29:17.239Z,12.00
2018-04-13T15:31:46.131Z,12.30
2018-04-13T15:34:14.227Z,12.30
2018-04-13T15:36:43.092Z,12.40
2018-04-13T15:39:11.183Z,12.40
2018-04-13T15:41:39.277Z,12.40
2018-04-13T15:44:07.349Z,12.40
2018-04-13T15:46:35.486Z,12.50
2018-04-13T15:49:03.617Z,12.60
2018-04-13T15:51:31.786Z,12.80
2018-04-13T15:54:00.586Z,12.60
2018-04-13T15:56:28.680Z,12.60
2018-04-13T15:58:56.770Z,12.70
2018-04-13T16:01:24.879Z,12.70
2018-04-13T16:03:52.996Z,12.80
2018-04-13T16:06:21.146Z,12.90
2018-04-13T16:08:49.401Z,12.80
2018-04-13T16:11:17.561Z,13.00
2018-04-13T16:13:45.687Z,12.90
2018-04-13T16:16:13.808Z,13.00
2018-04-13T16:18:42.695Z,12.70
2018-04-13T16:21:11.544Z,12.60
2018-04-13T16:23:39.632Z,12.60
2018-04-13T16:26:07.763Z,12.50
2018-04-13T16:28:35.849Z,12.30
2018-04-13T16:31:05.425Z,12.30
2018-04-13T16:33:33.543Z,12.20
2018-04-13T16:36:01.674Z,12.20
2018-04-13T16:38:29.835Z,12.20
2018-04-13T16:40:57.996Z,12.10
2018-04-13T16:43:26.115Z,12.00
2018-04-13T16:45:55.053Z,11.90
2018-04-13T16:48:23.176Z,11.90
2018-04-13T16:50:51.259Z,11.90
2018-04-13T16:53:19.384Z,11.90
2018-04-13T16:55:47.540Z,11.90
2018-04-13T16:58:15.697Z,11.90
2018-04-13T17:00:44.040Z,11.80
2018-04-13T17:03:12.909Z,11.70
2018-04-13T17:05:41.008Z,11.60
2018-04-13T17:08:09.112Z,11.60
2018-04-13T17:10:37.263Z,11.60
2018-04-13T17:13:05.341Z,11.50
2018-04-13T17:15:33.441Z,11.40
2018-04-13T17:18:01.532Z,11.40
2018-04-13T17:20:29.638Z,11.30
2018-04-13T17:22:58.664Z,11.20
2018-04-13T17:25:26.746Z,11.20
2018-04-13T17:27:54.859Z,11.10
